createdAt,value
2022-10-18T00:02:10.586Z,12.40
2022-10-18T00:04:37.322Z,12.40
2022-10-18T00:07:04.383Z,12.30
2022-10-18T00:09:31.115Z,12.40
2022-10-18T00:11:57.951Z,12.40
2022-10-18T00:14:24.806Z,12.30
2022-10-18T00:16:51.399Z,12.30
2022-10-18T00:19:17.976Z,12.40
2022-10-18T00:24:16.430Z,12.30
2022-10-18T00:26:43.051Z,12.30
2022-10-18T00:29:14.218Z,12.30
2022-10-18T00:31:41.175Z,12.30
2022-10-18T00:34:14.149Z,12.20
2022-10-18T00:36:41.624Z,12.10
2022-10-18T00:39:11.995Z,12.10
2022-10-18T00:41:38.638Z,12.20
2022-10-18T00:44:28.164Z,12.10
2022-10-18T00:47:00.651Z,12.10
2022-10-18T00:49:32.476Z,12.20
2022-10-18T00:52:27.941Z,12.20
2022-10-18T00:54:56.148Z,12.10
2022-10-18T00:57:23.410Z,12.10
2022-10-18T00:59:50.074Z,12.10
2022-10-18T01:02:17.214Z,12.00
2022-10-18T01:04:46.001Z,12.00
2022-10-18T01:07:31.319Z,11.90
2022-10-18T01:10:10.078Z,11.90
2022-10-18T01:12:42.474Z,12.00
2022-10-18T01:15:21.029Z,12.00
2022-10-18T01:18:09.227Z,12.00
2022-10-18T01:21:08.734Z,11.90
2022-10-18T01:23:53.869Z,11.80
2022-10-18T01:26:52.606Z,11.80
2022-10-18T01:29:48.490Z,11.80
2022-10-18T01:32:28.614Z,11.70
2022-10-18T01:35:01.791Z,11.70
2022-10-18T01:37:30.799Z,11.70
2022-10-18T01:39:59.469Z,11.60
2022-10-18T01:42:27.157Z,11.60
2022-10-18T01:44:54.688Z,11.60
2022-10-18T01:47:22.545Z,11.60
2022-10-18T01:49:49.201Z,11.60
2022-10-18T01:52:16.644Z,11.60
2022-10-18T01:54:46.579Z,11.60
2022-10-18T01:57:39.170Z,11.60
2022-10-18T02:00:22.032Z,11.60
2022-10-18T02:03:01.899Z,11.60
2022-10-18T02:06:00.404Z,11.50
2022-10-18T02:09:01.899Z,11.40
2022-10-18T02:11:30.130Z,11.40
2022-10-18T02:14:05.673Z,11.40
2022-10-18T02:16:38.683Z,11.30
2022-10-18T02:19:32.677Z,11.30
2022-10-18T02:22:00.139Z,11.30
2022-10-18T02:24:34.507Z,11.30
2022-10-18T02:27:02.060Z,11.30
2022-10-18T02:29:29.554Z,11.30
2022-10-18T02:32:05.951Z,11.20
2022-10-18T02:34:46.480Z,11.20
2022-10-18T02:37:14.476Z,11.20
2022-10-18T02:39:47.591Z,11.20
2022-10-18T02:42:15.026Z,11.30
2022-10-18T02:44:41.986Z,11.30
2022-10-18T02:47:10.779Z,11.30
2022-10-18T02:49:37.361Z,11.40
2022-10-18T02:52:04.160Z,11.50
2022-10-18T02:54:30.785Z,11.50
2022-10-18T02:56:57.369Z,11.50
2022-10-18T02:59:23.980Z,11.50
2022-10-18T03:01:50.588Z,11.50
2022-10-18T03:04:17.257Z,11.50
2022-10-18T03:06:43.857Z,11.50
2022-10-18T03:09:10.469Z,11.40
2022-10-18T03:11:37.070Z,11.40
2022-10-18T03:14:03.718Z,11.40
2022-10-18T03:16:30.347Z,11.40
2022-10-18T03:18:56.959Z,11.30
2022-10-18T03:21:23.557Z,11.30
2022-10-18T03:23:50.132Z,11.30
2022-10-18T03:26:16.793Z,11.30
2022-10-18T03:28:43.427Z,11.30
2022-10-18T03:31:10.353Z,11.30
2022-10-18T03:33:36.967Z,11.30
2022-10-18T03:36:03.793Z,11.30
2022-10-18T03:38:30.427Z,11.30
2022-10-18T03:40:57.095Z,11.30
2022-10-18T03:43:24.044Z,11.30
2022-10-18T03:45:52.306Z,11.30
2022-10-18T03:48:18.899Z,11.20
2022-10-18T03:50:45.519Z,11.20
2022-10-18T03:53:12.342Z,11.10
2022-10-18T03:55:39.110Z,11.10
2022-10-18T03:58:06.019Z,11.10
2022-10-18T04:00:32.715Z,11.00
2022-10-18T04:02:59.435Z,11.10
2022-10-18T04:05:26.055Z,11.20
2022-10-18T04:07:52.640Z,11.20
2022-10-18T04:10:22.158Z,11.20
2022-10-18T04:12:48.782Z,11.30
2022-10-18T04:15:15.427Z,11.30
2022-10-18T04:17:42.027Z,11.30
2022-10-18T04:20:09.052Z,11.30
2022-10-18T04:22:35.647Z,11.30
2022-10-18T04:25:02.244Z,11.40
2022-10-18T04:27:29.063Z,11.40
2022-10-18T04:29:55.800Z,11.50
2022-10-18T04:32:22.430Z,11.50
2022-10-18T04:34:49.037Z,11.60
2022-10-18T04:37:15.691Z,11.60
2022-10-18T04:39:42.288Z,11.70
2022-10-18T04:42:08.867Z,11.70
2022-10-18T04:44:35.465Z,11.80
2022-10-18T04:47:02.041Z,11.80
2022-10-18T04:49:28.629Z,11.80
2022-10-18T04:51:55.207Z,11.80
2022-10-18T04:54:23.870Z,11.80
2022-10-18T04:56:53.482Z,11.80
2022-10-18T04:59:20.154Z,11.80
2022-10-18T05:01:46.951Z,11.80
2022-10-18T05:04:13.595Z,11.90
2022-10-18T05:06:40.200Z,11.80
2022-10-18T05:09:06.927Z,11.90
2022-10-18T05:11:33.535Z,11.90
2022-10-18T05:14:00.150Z,11.90
2022-10-18T05:16:26.745Z,12.00
2022-10-18T05:18:53.343Z,11.90
2022-10-18T05:21:19.936Z,12.00
2022-10-18T05:23:46.571Z,12.00
2022-10-18T05:26:13.149Z,12.00
2022-10-18T05:28:41.084Z,12.10
2022-10-18T05:31:09.675Z,12.10
2022-10-18T05:33:36.577Z,12.10
2022-10-18T05:36:03.405Z,12.10
2022-10-18T05:38:30.030Z,12.10
2022-10-18T05:40:57.372Z,12.20
2022-10-18T05:43:24.197Z,12.20
2022-10-18T05:45:51.556Z,12.20
2022-10-18T05:48:18.553Z,12.20
2022-10-18T05:50:45.699Z,12.20
2022-10-18T05:53:24.714Z,12.20
2022-10-18T05:56:02.490Z,12.30
2022-10-18T05:58:29.165Z,12.30
2022-10-18T06:01:01.707Z,12.30
2022-10-18T06:03:28.585Z,12.40
2022-10-18T06:06:06.925Z,12.40
2022-10-18T06:08:34.072Z,12.50
2022-10-18T06:11:05.609Z,12.50
2022-10-18T06:13:32.553Z,12.50
2022-10-18T06:16:00.489Z,12.50
2022-10-18T06:18:27.057Z,12.50
2022-10-18T06:20:57.767Z,12.60
2022-10-18T06:23:25.255Z,12.60
2022-10-18T06:25:51.854Z,12.60
2022-10-18T06:28:18.703Z,12.50
2022-10-18T06:30:45.332Z,12.50
2022-10-18T06:33:11.908Z,12.60
2022-10-18T06:35:38.483Z,12.60
2022-10-18T06:38:05.101Z,12.60
2022-10-18T06:40:31.926Z,12.70
2022-10-18T06:43:00.478Z,12.80
2022-10-18T06:45:37.199Z,12.80
2022-10-18T06:48:03.987Z,12.90
2022-10-18T06:50:30.679Z,12.90
2022-10-18T06:52:57.277Z,13.00
2022-10-18T06:55:23.894Z,13.00
2022-10-18T06:57:50.478Z,13.00
2022-10-18T07:00:17.155Z,13.10
2022-10-18T07:02:43.756Z,13.10
2022-10-18T07:05:11.010Z,13.20
2022-10-18T07:07:37.991Z,13.30
2022-10-18T07:10:05.285Z,13.40
2022-10-18T07:12:32.527Z,13.40
2022-10-18T07:14:59.142Z,13.60
2022-10-18T07:17:26.332Z,13.70
2022-10-18T07:19:52.925Z,13.80
2022-10-18T07:22:19.504Z,13.90
2022-10-18T07:24:46.092Z,13.90
2022-10-18T07:27:12.709Z,14.00
2022-10-18T07:29:39.300Z,14.00
2022-10-18T07:32:05.943Z,14.10
2022-10-18T07:34:32.538Z,14.20
2022-10-18T07:36:59.124Z,14.20
2022-10-18T07:39:25.724Z,14.30
2022-10-18T07:41:52.313Z,14.40
2022-10-18T07:44:18.883Z,14.40
2022-10-18T07:46:45.476Z,14.40
2022-10-18T07:49:12.066Z,14.50
2022-10-18T07:51:38.649Z,14.50
2022-10-18T07:54:05.229Z,14.50
2022-10-18T07:56:31.826Z,14.60
2022-10-18T07:58:58.405Z,14.60
2022-10-18T08:01:25.816Z,14.70
2022-10-18T08:03:52.990Z,14.70
2022-10-18T08:06:21.244Z,14.70
2022-10-18T08:08:48.006Z,14.80
2022-10-18T08:11:17.739Z,14.80
2022-10-18T08:13:44.669Z,14.90
2022-10-18T08:16:16.770Z,15.00
2022-10-18T08:18:43.503Z,15.00
2022-10-18T08:21:11.744Z,15.10
2022-10-18T08:23:39.149Z,15.20
2022-10-18T08:26:08.983Z,15.30
2022-10-18T08:28:35.794Z,15.40
2022-10-18T08:31:07.511Z,15.40
2022-10-18T08:33:34.827Z,15.40
2022-10-18T08:36:04.210Z,15.50
2022-10-18T08:38:31.309Z,15.60
2022-10-18T08:41:16.626Z,15.70
2022-10-18T08:44:07.764Z,15.80
2022-10-18T08:46:36.928Z,15.90
2022-10-18T08:49:05.102Z,15.90
2022-10-18T08:51:39.680Z,16.00
2022-10-18T08:54:37.586Z,16.00
2022-10-18T08:57:14.543Z,16.10
2022-10-18T08:59:41.951Z,16.10
2022-10-18T09:02:35.163Z,16.10
2022-10-18T09:05:28.232Z,16.10
2022-10-18T09:07:57.792Z,16.10
2022-10-18T09:10:43.419Z,16.30
2022-10-18T09:13:31.021Z,16.30
2022-10-18T09:16:08.099Z,16.50
2022-10-18T09:19:16.515Z,16.70
2022-10-18T09:22:03.992Z,16.90
2022-10-18T09:25:02.114Z,17.20
2022-10-18T09:27:39.356Z,17.50
2022-10-18T09:30:39.510Z,17.60
2022-10-18T09:33:17.770Z,17.90
2022-10-18T09:36:04.793Z,18.10
2022-10-18T09:38:40.938Z,18.30
2022-10-18T09:41:13.355Z,18.50
2022-10-18T09:44:05.505Z,18.70
2022-10-18T09:46:36.299Z,18.90
2022-10-18T09:49:19.089Z,19.10
2022-10-18T09:51:48.306Z,19.30
2022-10-18T09:54:40.048Z,19.50
2022-10-18T09:57:25.416Z,19.70
2022-10-18T09:59:52.261Z,19.80
2022-10-18T10:02:21.369Z,20.00
2022-10-18T10:04:48.967Z,20.10
2022-10-18T10:07:21.532Z,20.30
2022-10-18T10:10:19.036Z,20.50
2022-10-18T10:12:46.179Z,20.70
2022-10-18T10:15:19.881Z,20.90
2022-10-18T10:18:07.201Z,21.10
2022-10-18T10:20:52.534Z,21.30
2022-10-18T10:23:26.681Z,21.50
2022-10-18T10:25:56.192Z,21.70
2022-10-18T10:28:36.515Z,21.80
2022-10-18T10:31:24.916Z,21.80
2022-10-18T10:34:13.296Z,22.00
2022-10-18T10:36:54.443Z,22.10
2022-10-18T10:39:24.927Z,22.20
2022-10-18T10:41:57.947Z,22.40
2022-10-18T10:44:30.841Z,22.50
2022-10-18T10:46:58.069Z,22.50
2022-10-18T10:49:40.290Z,22.70
2022-10-18T10:52:26.727Z,22.80
2022-10-18T10:55:05.425Z,22.80
2022-10-18T10:57:38.830Z,22.90
2022-10-18T11:00:05.893Z,23.00
2022-10-18T11:02:34.477Z,23.10
2022-10-18T11:05:23.628Z,23.30
2022-10-18T11:07:53.299Z,23.50
2022-10-18T11:10:24.925Z,23.70
2022-10-18T11:13:12.824Z,23.60
2022-10-18T11:15:44.944Z,23.90
2022-10-18T11:18:23.837Z,24.00
2022-10-18T11:21:05.507Z,24.10
2022-10-18T11:23:34.216Z,24.10
2022-10-18T11:26:13.271Z,24.10
2022-10-18T11:29:11.742Z,24.00
2022-10-18T11:31:41.079Z,24.10
2022-10-18T11:34:34.840Z,24.40
2022-10-18T11:37:29.493Z,24.30
2022-10-18T11:40:11.348Z,24.40
2022-10-18T11:43:02.579Z,24.30
2022-10-18T11:46:08.702Z,24.50
2022-10-18T11:49:08.443Z,24.40
2022-10-18T11:52:09.652Z,24.50
2022-10-18T11:54:58.377Z,24.60
2022-10-18T11:57:36.964Z,24.70
2022-10-18T12:00:16.749Z,24.70
2022-10-18T12:02:49.517Z,24.70
2022-10-18T12:05:24.911Z,25.00
2022-10-18T12:08:07.330Z,25.20
2022-10-18T12:10:52.704Z,25.00
2022-10-18T12:13:36.261Z,25.10
2022-10-18T12:16:05.010Z,25.00
2022-10-18T12:18:33.389Z,25.10
2022-10-18T12:21:00.766Z,25.00
2022-10-18T12:23:30.298Z,25.30
2022-10-18T12:26:02.634Z,25.30
2022-10-18T12:28:44.023Z,25.20
2022-10-18T12:31:19.390Z,25.40
2022-10-18T12:33:53.639Z,25.00
2022-10-18T12:36:35.189Z,24.80
2022-10-18T12:39:05.070Z,24.40
2022-10-18T12:41:34.274Z,24.00
2022-10-18T12:44:21.077Z,23.70
2022-10-18T12:46:56.799Z,23.40
2022-10-18T12:49:35.451Z,23.30
2022-10-18T12:52:27.157Z,23.20
2022-10-18T12:55:15.301Z,23.30
2022-10-18T12:57:53.603Z,23.20
2022-10-18T13:00:32.136Z,23.30
2022-10-18T13:03:13.514Z,23.30
2022-10-18T13:05:52.980Z,23.10
2022-10-18T13:08:41.298Z,23.30
2022-10-18T13:11:10.598Z,23.20
2022-10-18T13:13:58.249Z,23.10
2022-10-18T13:16:50.517Z,22.90
2022-10-18T13:19:31.864Z,22.80
2022-10-18T13:22:16.585Z,22.70
2022-10-18T13:25:06.307Z,22.70
2022-10-18T13:28:00.955Z,22.60
2022-10-18T13:30:57.435Z,22.50
2022-10-18T13:33:39.189Z,22.40
2022-10-18T13:36:22.714Z,22.30
2022-10-18T13:38:55.879Z,22.30
2022-10-18T13:41:25.590Z,22.30
2022-10-18T13:44:22.731Z,22.40
2022-10-18T13:46:49.279Z,22.50
2022-10-18T13:49:36.785Z,22.60
2022-10-18T13:52:06.097Z,22.60
2022-10-18T13:55:03.806Z,22.70
2022-10-18T13:57:57.652Z,22.70
2022-10-18T14:00:48.338Z,22.70
2022-10-18T14:04:09.368Z,22.70
2022-10-18T14:06:43.497Z,22.50
2022-10-18T14:09:40.384Z,22.30
2022-10-18T14:12:22.679Z,22.30
2022-10-18T14:15:12.746Z,22.20
2022-10-18T14:17:44.967Z,22.20
2022-10-18T14:20:27.348Z,22.10
2022-10-18T14:23:09.212Z,22.10
2022-10-18T14:25:37.448Z,22.20
2022-10-18T14:28:31.493Z,22.00
2022-10-18T14:31:18.142Z,21.90
2022-10-18T14:33:58.056Z,21.90
2022-10-18T14:36:29.263Z,21.80
2022-10-18T14:39:07.323Z,21.60
2022-10-18T14:41:47.131Z,21.20
2022-10-18T14:44:16.417Z,20.80
2022-10-18T14:47:13.485Z,20.50
2022-10-18T14:49:45.138Z,20.40
2022-10-18T14:52:24.068Z,20.20
2022-10-18T14:54:55.495Z,20.00
2022-10-18T14:57:37.219Z,19.90
2022-10-18T15:00:32.905Z,19.80
2022-10-18T15:03:01.484Z,19.80
2022-10-18T15:05:28.091Z,19.70
2022-10-18T15:07:55.318Z,19.60
2022-10-18T15:10:28.573Z,19.50
2022-10-18T15:13:09.379Z,19.50
2022-10-18T15:15:38.221Z,19.40
2022-10-18T15:18:06.558Z,19.30
2022-10-18T15:20:36.686Z,19.10
2022-10-18T15:23:25.991Z,19.10
2022-10-18T15:26:00.230Z,19.10
2022-10-18T15:28:32.763Z,19.10
2022-10-18T15:30:59.495Z,19.00
2022-10-18T15:33:26.615Z,18.90
2022-10-18T15:35:54.066Z,18.90
2022-10-18T15:38:27.741Z,18.90
2022-10-18T15:40:55.359Z,18.90
2022-10-18T15:43:28.136Z,18.90
2022-10-18T15:46:00.290Z,18.90
2022-10-18T15:48:41.746Z,18.80
2022-10-18T15:51:47.046Z,18.80
2022-10-18T15:54:29.078Z,18.70
2022-10-18T15:56:56.465Z,18.70
2022-10-18T15:59:28.807Z,18.60
2022-10-18T16:01:55.588Z,18.60
2022-10-18T16:04:28.542Z,18.60
2022-10-18T16:06:56.602Z,18.60
2022-10-18T16:09:25.923Z,18.60
2022-10-18T16:11:56.764Z,18.50
2022-10-18T16:14:25.074Z,18.40
2022-10-18T16:16:54.567Z,18.40
2022-10-18T16:19:21.204Z,18.30
2022-10-18T16:21:48.054Z,18.30
2022-10-18T16:24:15.137Z,18.20
2022-10-18T16:26:42.046Z,18.20
2022-10-18T16:29:16.774Z,18.10
2022-10-18T16:31:43.435Z,18.10
2022-10-18T16:34:10.023Z,18.00
2022-10-18T16:36:37.157Z,18.00
2022-10-18T16:39:06.520Z,18.00
2022-10-18T16:41:33.791Z,17.90
2022-10-18T16:44:00.352Z,17.90
2022-10-18T16:46:31.736Z,17.80
2022-10-18T16:49:04.991Z,17.70
2022-10-18T16:51:31.847Z,17.70
2022-10-18T16:53:58.499Z,17.70
2022-10-18T16:56:30.275Z,17.70
2022-10-18T16:58:58.387Z,17.70
2022-10-18T17:01:25.471Z,17.70
2022-10-18T17:03:53.075Z,17.60
2022-10-18T17:06:26.046Z,17.60
2022-10-18T17:08:53.678Z,17.60
2022-10-18T17:11:21.792Z,17.50
2022-10-18T17:13:48.384Z,17.50
2022-10-18T17:18:57.605Z,17.30
2022-10-18T17:21:25.375Z,17.30
2022-10-18T17:23:51.965Z,17.30
2022-10-18T17:26:28.835Z,17.20
2022-10-18T17:29:00.201Z,17.10
2022-10-18T17:31:27.967Z,17.00
2022-10-18T17:33:54.609Z,17.10
2022-10-18T17:36:22.186Z,17.00
2022-10-18T17:38:52.295Z,16.90
2022-10-18T17:41:18.995Z,16.90
2022-10-18T17:43:45.564Z,16.80
2022-10-18T17:46:12.922Z,16.80
2022-10-18T17:48:39.889Z,16.80
2022-10-18T17:51:08.059Z,16.70
2022-10-18T17:53:34.664Z,16.70
2022-10-18T17:56:02.991Z,16.60
2022-10-18T17:58:30.378Z,16.60
2022-10-18T18:00:57.395Z,16.60
2022-10-18T18:03:24.276Z,16.50
2022-10-18T18:05:50.899Z,16.50
2022-10-18T18:08:17.469Z,16.50
2022-10-18T18:10:44.089Z,16.50
2022-10-18T18:13:10.727Z,16.40
2022-10-18T18:15:37.325Z,16.40
2022-10-18T18:18:03.940Z,16.40
2022-10-18T18:20:30.612Z,16.30
2022-10-18T18:22:57.219Z,16.30
2022-10-18T18:25:23.834Z,16.30
2022-10-18T18:27:50.458Z,16.20
2022-10-18T18:30:17.171Z,16.20
2022-10-18T18:32:43.755Z,16.10
2022-10-18T18:35:10.349Z,16.10
2022-10-18T18:37:36.948Z,16.10
2022-10-18T18:40:03.867Z,16.10
2022-10-18T18:42:30.618Z,16.10
2022-10-18T18:44:57.364Z,16.10
2022-10-18T18:47:23.979Z,16.10
2022-10-18T18:49:50.607Z,16.10
2022-10-18T18:52:17.243Z,16.10
2022-10-18T18:54:43.839Z,16.10
2022-10-18T18:57:10.498Z,16.00
2022-10-18T18:59:37.107Z,16.00
2022-10-18T19:02:03.690Z,16.00
2022-10-18T19:04:30.266Z,16.00
2022-10-18T19:06:56.860Z,15.90
2022-10-18T19:09:23.498Z,15.90
2022-10-18T19:11:52.406Z,15.90
2022-10-18T19:14:19.635Z,15.90
2022-10-18T19:16:53.151Z,15.90
2022-10-18T19:19:22.387Z,16.00
2022-10-18T19:21:54.408Z,16.00
2022-10-18T19:24:22.842Z,16.00
2022-10-18T19:26:57.738Z,15.90
2022-10-18T19:29:25.969Z,15.90
2022-10-18T19:31:55.216Z,15.90
2022-10-18T19:34:24.091Z,15.90
2022-10-18T19:36:50.979Z,15.80
2022-10-18T19:39:23.714Z,15.80
2022-10-18T19:41:53.434Z,15.80
2022-10-18T19:44:20.153Z,15.90
2022-10-18T19:46:47.279Z,15.90
2022-10-18T19:49:14.178Z,15.90
2022-10-18T19:51:41.293Z,15.90
2022-10-18T19:54:09.588Z,15.80
2022-10-18T19:56:36.223Z,15.80
2022-10-18T19:59:02.983Z,15.80
2022-10-18T20:01:30.035Z,15.70
2022-10-18T20:03:57.061Z,15.70
2022-10-18T20:06:24.151Z,15.70
2022-10-18T20:08:51.140Z,15.70
2022-10-18T20:11:21.495Z,15.70
2022-10-18T20:13:48.517Z,15.60
2022-10-18T20:16:16.865Z,15.70
2022-10-18T20:18:43.669Z,15.60
2022-10-18T20:21:12.632Z,15.60
2022-10-18T20:23:41.082Z,15.60
2022-10-18T20:26:18.029Z,15.60
2022-10-18T20:28:50.968Z,15.60
2022-10-18T20:31:19.431Z,15.50
2022-10-18T20:33:47.423Z,15.50
2022-10-18T20:36:17.293Z,15.50
2022-10-18T20:38:46.281Z,15.40
2022-10-18T20:41:16.127Z,15.40
2022-10-18T20:43:42.898Z,15.40
2022-10-18T20:46:10.154Z,15.40
2022-10-18T20:48:37.573Z,15.40
2022-10-18T20:51:06.089Z,15.40
2022-10-18T20:53:34.333Z,15.40
2022-10-18T20:56:09.603Z,15.40
2022-10-18T20:58:37.647Z,15.40
2022-10-18T21:01:09.839Z,15.40
2022-10-18T21:03:41.179Z,15.40
2022-10-18T21:06:12.177Z,15.40
2022-10-18T21:08:39.526Z,15.40
2022-10-18T21:11:06.780Z,15.40
2022-10-18T21:13:33.811Z,15.30
2022-10-18T21:16:01.833Z,15.30
2022-10-18T21:18:30.773Z,15.30
2022-10-18T21:21:07.734Z,15.30
2022-10-18T21:23:34.487Z,15.30
2022-10-18T21:26:01.079Z,15.30
2022-10-18T21:28:27.746Z,15.30
2022-10-18T21:30:54.366Z,15.20
2022-10-18T21:33:20.968Z,15.20
2022-10-18T21:35:47.564Z,15.20
2022-10-18T21:38:14.143Z,15.20
2022-10-18T21:40:40.734Z,15.20
2022-10-18T21:43:07.311Z,15.20
2022-10-18T21:45:33.929Z,15.20
2022-10-18T21:48:02.476Z,15.10
2022-10-18T21:50:29.085Z,15.10
2022-10-18T21:52:55.642Z,15.10
2022-10-18T21:55:22.223Z,15.00
2022-10-18T21:57:48.827Z,15.00
2022-10-18T22:00:16.052Z,14.90
2022-10-18T22:02:42.635Z,14.90
2022-10-18T22:05:11.414Z,14.80
2022-10-18T22:07:38.871Z,14.80
2022-10-18T22:10:05.802Z,14.80
2022-10-18T22:12:32.396Z,14.70
2022-10-18T22:14:58.976Z,14.70
2022-10-18T22:17:25.555Z,14.60
2022-10-18T22:19:52.151Z,14.60
2022-10-18T22:22:18.759Z,14.60
2022-10-18T22:24:45.399Z,14.50
2022-10-18T22:27:12.005Z,14.50
2022-10-18T22:29:38.694Z,14.50
2022-10-18T22:32:05.423Z,14.40
2022-10-18T22:34:31.992Z,14.40
2022-10-18T22:36:58.583Z,14.40
2022-10-18T22:39:25.211Z,14.40
2022-10-18T22:41:52.018Z,14.40
2022-10-18T22:44:18.604Z,14.40
2022-10-18T22:46:45.175Z,14.40
2022-10-18T22:49:12.196Z,14.40
2022-10-18T22:51:38.825Z,14.50
2022-10-18T22:54:05.730Z,14.50
2022-10-18T22:56:32.321Z,14.60
2022-10-18T22:58:58.907Z,14.50
2022-10-18T23:01:25.596Z,14.50
2022-10-18T23:03:53.951Z,14.60
2022-10-18T23:06:22.682Z,14.60
2022-10-18T23:08:50.334Z,14.60
2022-10-18T23:11:17.751Z,14.50
2022-10-18T23:13:44.368Z,14.50
2022-10-18T23:16:11.078Z,14.40
2022-10-18T23:21:11.727Z,14.40
2022-10-18T23:23:41.029Z,14.40
2022-10-18T23:26:10.464Z,14.40
2022-10-18T23:28:39.585Z,14.40
2022-10-18T23:31:21.069Z,14.50
2022-10-18T23:33:49.957Z,14.40
2022-10-18T23:36:17.289Z,14.40
2022-10-18T23:38:44.288Z,14.40
2022-10-18T23:41:12.743Z,14.40
2022-10-18T23:43:39.568Z,14.40
2022-10-18T23:46:06.666Z,14.30
2022-10-18T23:48:33.434Z,14.20
2022-10-18T23:51:01.011Z,14.20
2022-10-18T23:53:27.631Z,14.20
2022-10-18T23:55:59.381Z,14.20
2022-10-18T23:58:27.782Z,14.20
